Time;durP1;ratioP1;P1;durP2;ratioP2;P2;SDS_P1;SDS_P2;PMS_P1;PMS_P2;Temp;Humidity;BMP_temperature;BMP_pressure;BME280_temperature;BME280_humidity;BME280_pressure;Samples;Min_cycle;Max_cycle;Signal;HPM_P1;HPM_P2
2023/04/10 00:01:12;;;;;;;37.42;28.80;;;10.30;99.90;;;;;;5109885;28;20712;-78
2023/04/10 00:03:41;;;;;;;30.50;27.23;;;10.30;99.90;;;;;;5094476;28;20223;-78
2023/04/10 00:06:09;;;;;;;32.72;25.50;;;10.30;99.90;;;;;;5093654;28;20326;-78
2023/04/10 00:08:36;;;;;;;31.20;26.65;;;10.30;99.90;;;;;;5095186;28;20281;-78
2023/04/10 00:11:04;;;;;;;32.25;24.85;;;10.20;99.90;;;;;;5090008;28;20219;-77
2023/04/10 00:13:32;;;;;;;30.27;24.92;;;10.30;99.90;;;;;;5076930;28;20215;-77
2023/04/10 00:15:59;;;;;;;28.45;24.67;;;10.20;99.90;;;;;;5094114;28;20231;-77
2023/04/10 00:18:27;;;;;;;28.67;24.13;;;10.20;99.90;;;;;;5093754;28;20296;-78
2023/04/10 00:20:55;;;;;;;26.45;23.58;;;10.20;99.90;;;;;;5094382;28;20311;-78
2023/04/10 00:23:25;;;;;;;29.25;26.08;;;10.10;99.90;;;;;;5094790;28;20219;-78
2023/04/10 00:25:54;;;;;;;28.13;24.50;;;10.10;99.90;;;;;;5094538;28;20223;-78
2023/04/10 00:28:21;;;;;;;27.08;23.67;;;10.10;99.90;;;;;;5093200;28;20279;-78
2023/04/10 00:30:50;;;;;;;31.38;26.58;;;10.10;99.90;;;;;;5103169;28;20223;-77
2023/04/10 00:33:17;;;;;;;33.50;23.65;;;10.10;99.90;;;;;;5102821;28;20231;-78
2023/04/10 00:35:44;;;;;;;31.85;26.52;;;10.10;99.90;;;;;;5100238;28;20283;-77
2023/04/10 00:38:13;;;;;;;26.55;23.48;;;10.10;99.90;;;;;;5109652;28;20306;-77
2023/04/10 00:40:47;;;;;;;31.20;26.98;;;10.00;99.90;;;;;;5101684;28;20231;-78
2023/04/10 00:43:14;;;;;;;33.08;25.73;;;10.00;99.90;;;;;;5102498;28;20230;-78
2023/04/10 00:45:41;;;;;;;37.00;25.23;;;9.90;99.90;;;;;;5100274;28;20231;-79
2023/04/10 00:48:08;;;;;;;27.42;23.30;;;9.90;99.90;;;;;;5098432;28;20280;-78
2023/04/10 00:50:36;;;;;;;28.35;24.35;;;9.90;99.90;;;;;;5097743;28;20227;-77
2023/04/10 00:53:05;;;;;;;28.52;24.58;;;9.90;99.90;;;;;;5098716;28;20295;-78
2023/04/10 00:55:32;;;;;;;29.02;23.85;;;9.90;99.90;;;;;;5099456;28;20222;-78
2023/04/10 00:58:01;;;;;;;25.15;21.70;;;9.90;99.90;;;;;;5099513;28;20348;-78
2023/04/10 01:00:28;;;;;;;28.58;23.13;;;9.90;99.90;;;;;;5093957;28;20600;-77
2023/04/10 01:02:55;;;;;;;25.83;21.25;;;9.80;99.90;;;;;;5095089;28;20304;-77
2023/04/10 01:05:23;;;;;;;22.73;20.25;;;9.80;99.90;;;;;;5093908;28;20247;-76
2023/04/10 01:08:00;;;;;;;26.20;21.17;;;9.80;99.90;;;;;;5092649;28;20383;-79
2023/04/10 01:10:36;;;;;;;23.35;20.95;;;9.80;99.90;;;;;;5093737;28;20246;-78
2023/04/10 01:13:11;;;;;;;26.02;21.35;;;9.80;99.90;;;;;;5094374;28;20223;-78
2023/04/10 01:15:48;;;;;;;20.88;18.63;;;9.80;99.90;;;;;;5094640;28;20223;-79
2023/04/10 01:18:25;;;;;;;22.55;19.55;;;9.80;99.90;;;;;;5093826;28;20222;-77
2023/04/10 01:20:57;;;;;;;21.40;16.58;;;9.80;99.90;;;;;;5097082;28;20283;-77
2023/04/10 01:23:57;;;;;;;20.92;17.45;;;9.70;99.90;;;;;;5093833;28;20605;-77
2023/04/10 01:26:56;;;;;;;21.67;18.75;;;9.70;99.90;;;;;;5076066;28;20679;-78
2023/04/10 01:29:29;;;;;;;21.40;17.98;;;9.70;99.90;;;;;;5090915;28;20254;-78
2023/04/10 01:32:03;;;;;;;21.05;17.50;;;9.70;99.90;;;;;;5106347;28;20738;-77
2023/04/10 01:34:38;;;;;;;25.90;19.02;;;9.70;99.90;;;;;;5097683;28;20286;-77
2023/04/10 01:37:11;;;;;;;21.13;18.23;;;9.70;99.90;;;;;;5097093;28;20546;-76
2023/04/10 01:39:43;;;;;;;24.08;18.70;;;9.70;99.90;;;;;;5097772;28;20314;-76
2023/04/10 01:42:14;;;;;;;25.38;20.00;;;9.70;99.90;;;;;;5077541;28;20228;-77
2023/04/10 01:44:44;;;;;;;24.08;19.48;;;9.70;99.90;;;;;;5077261;28;20231;-77
2023/04/10 01:47:15;;;;;;;25.42;20.67;;;9.60;99.90;;;;;;5077061;28;20535;-76
2023/04/10 01:49:45;;;;;;;25.05;19.90;;;9.60;99.90;;;;;;5076418;28;20327;-78
2023/04/10 01:52:31;;;;;;;21.27;18.00;;;9.60;99.90;;;;;;5077263;28;20686;-78
2023/04/10 01:55:01;;;;;;;25.77;19.50;;;9.60;99.90;;;;;;5077483;28;20293;-77
2023/04/10 01:57:30;;;;;;;21.10;18.80;;;9.60;99.90;;;;;;5076283;28;20240;-77
2023/04/10 01:59:59;;;;;;;22.42;18.85;;;9.50;99.90;;;;;;5065606;28;20230;-77
2023/04/10 02:02:30;;;;;;;23.23;19.08;;;9.50;99.90;;;;;;5089263;28;20219;-77
2023/04/10 02:04:57;;;;;;;21.20;18.85;;;9.50;99.90;;;;;;5096349;28;20245;-77
2023/04/10 02:07:30;;;;;;;23.35;17.55;;;9.60;99.90;;;;;;5096382;28;20239;-77
2023/04/10 02:10:02;;;;;;;22.13;16.85;;;9.50;99.90;;;;;;5096936;28;20631;-77
2023/04/10 02:12:32;;;;;;;20.33;18.00;;;9.50;99.90;;;;;;5096671;28;20281;-78
2023/04/10 02:15:07;;;;;;;21.95;18.73;;;9.50;99.90;;;;;;5068314;28;20716;-79
2023/04/10 02:17:36;;;;;;;20.58;17.90;;;9.50;99.90;;;;;;5097066;28;20540;-79
2023/04/10 02:20:07;;;;;;;26.35;18.25;;;9.50;99.90;;;;;;5087370;28;20608;-77
2023/04/10 02:22:42;;;;;;;19.50;15.50;;;9.50;99.90;;;;;;5104515;28;20219;-77
2023/04/10 02:25:11;;;;;;;17.77;14.55;;;9.50;99.90;;;;;;5114653;28;20230;-77
2023/04/10 02:27:38;;;;;;;20.70;18.48;;;9.50;99.90;;;;;;5115042;28;20223;-78
2023/04/10 02:30:08;;;;;;;17.98;15.90;;;9.60;99.90;;;;;;5115989;28;20233;-79
2023/04/10 02:32:36;;;;;;;22.00;17.55;;;9.60;99.90;;;;;;5098514;28;20284;-79
2023/04/10 02:35:04;;;;;;;19.73;15.05;;;9.60;99.90;;;;;;5094398;28;20251;-78
2023/04/10 02:37:36;;;;;;;17.77;15.73;;;9.60;99.90;;;;;;5096228;28;20251;-78
2023/04/10 02:40:03;;;;;;;19.70;15.90;;;9.70;99.90;;;;;;5094118;28;20332;-76
2023/04/10 02:42:30;;;;;;;19.65;16.15;;;9.70;99.90;;;;;;5094970;28;20284;-77
2023/04/10 02:44:58;;;;;;;17.42;15.38;;;9.80;99.90;;;;;;5094754;28;20223;-77
2023/04/10 02:47:26;;;;;;;21.77;18.27;;;9.90;99.90;;;;;;5095718;28;20230;-76
2023/04/10 02:49:53;;;;;;;20.77;16.10;;;9.90;99.90;;;;;;5095014;28;20692;-77
2023/04/10 02:52:22;;;;;;;17.63;15.60;;;9.90;99.90;;;;;;5093716;28;20227;-77
2023/04/10 02:54:48;;;;;;;18.13;15.23;;;9.80;99.90;;;;;;5068231;28;20235;-77
2023/04/10 02:57:16;;;;;;;16.42;14.60;;;9.90;99.90;;;;;;5094571;28;20222;-77
2023/04/10 02:59:44;;;;;;;18.00;15.15;;;9.90;99.90;;;;;;5095726;28;20266;-77
2023/04/10 03:02:11;;;;;;;19.13;15.82;;;9.90;99.90;;;;;;5094567;28;20269;-77
2023/04/10 03:04:40;;;;;;;19.27;16.30;;;9.90;99.90;;;;;;5094218;28;20223;-77
2023/04/10 03:07:07;;;;;;;17.10;14.30;;;9.80;99.90;;;;;;5094723;28;20219;-77
2023/04/10 03:09:34;;;;;;;19.70;17.00;;;9.90;99.90;;;;;;5110087;28;20222;-78
2023/04/10 03:12:01;;;;;;;18.92;15.70;;;9.80;99.90;;;;;;5094040;28;20247;-77
2023/04/10 03:14:28;;;;;;;17.83;14.32;;;9.80;99.90;;;;;;5094778;28;20223;-78
2023/04/10 03:16:55;;;;;;;20.65;16.90;;;9.80;99.90;;;;;;5094416;28;20216;-77
2023/04/10 03:19:22;;;;;;;22.23;17.92;;;9.80;99.90;;;;;;5095310;28;20227;-77
2023/04/10 03:21:51;;;;;;;20.50;16.75;;;9.80;99.90;;;;;;5094154;28;20258;-78
2023/04/10 03:24:18;;;;;;;19.55;15.75;;;9.80;99.90;;;;;;5093607;28;20276;-77
2023/04/10 03:26:45;;;;;;;19.58;16.67;;;9.80;99.90;;;;;;5094035;28;20230;-78
2023/04/10 03:29:12;;;;;;;19.83;16.23;;;9.80;99.90;;;;;;5092979;28;20227;-77
2023/04/10 03:31:39;;;;;;;23.60;15.88;;;9.70;99.90;;;;;;5094451;28;20534;-77
2023/04/10 03:34:07;;;;;;;23.80;17.67;;;9.70;99.90;;;;;;5093804;28;20223;-78
2023/04/10 03:36:34;;;;;;;21.80;18.23;;;9.60;99.90;;;;;;5094138;28;20227;-77
2023/04/10 03:39:02;;;;;;;26.40;17.10;;;9.60;99.90;;;;;;5082566;28;20234;-78
2023/04/10 03:41:29;;;;;;;20.63;16.58;;;9.60;99.90;;;;;;5093847;28;20288;-77
2023/04/10 03:43:56;;;;;;;19.17;15.23;;;9.60;99.90;;;;;;5093614;28;20227;-77
2023/04/10 03:46:23;;;;;;;20.90;16.38;;;9.60;99.90;;;;;;5093455;28;20231;-78
2023/04/10 03:48:52;;;;;;;22.48;16.95;;;9.60;99.90;;;;;;5093962;28;20314;-77
2023/04/10 03:51:20;;;;;;;21.02;17.98;;;9.50;99.90;;;;;;5093704;28;20258;-77
2023/04/10 03:53:47;;;;;;;21.02;18.92;;;9.50;99.90;;;;;;5092974;28;20219;-77
2023/04/10 03:56:16;;;;;;;21.45;17.30;;;9.50;99.90;;;;;;5093653;28;20247;-78
2023/04/10 03:58:44;;;;;;;25.42;18.65;;;9.50;99.90;;;;;;5094103;28;20570;-77
2023/04/10 04:01:11;;;;;;;28.73;19.55;;;9.40;99.90;;;;;;5089863;28;20239;-76
2023/04/10 04:03:38;;;;;;;25.70;20.50;;;9.30;99.90;;;;;;5073364;28;20277;-76
2023/04/10 04:06:05;;;;;;;28.75;20.90;;;9.30;99.90;;;;;;5072889;28;20289;-77
2023/04/10 04:08:35;;;;;;;20.35;17.85;;;9.20;99.90;;;;;;5094403;28;20219;-77
2023/04/10 04:11:02;;;;;;;20.58;17.55;;;9.30;99.90;;;;;;5097278;28;20231;-77
2023/04/10 04:13:32;;;;;;;23.80;19.85;;;9.30;99.90;;;;;;5092887;28;20340;-77
2023/04/10 04:16:01;;;;;;;23.92;20.05;;;9.20;99.90;;;;;;5093164;28;20643;-77
2023/04/10 04:18:28;;;;;;;24.75;22.30;;;9.10;99.90;;;;;;5092680;28;20223;-77
2023/04/10 04:20:56;;;;;;;23.30;20.40;;;9.20;99.90;;;;;;5090965;28;20288;-77
2023/04/10 04:23:23;;;;;;;26.00;19.85;;;9.10;99.90;;;;;;5074529;28;20234;-77
2023/04/10 04:25:51;;;;;;;25.13;20.05;;;9.10;99.90;;;;;;5072854;28;20220;-77
2023/04/10 04:28:19;;;;;;;25.08;21.73;;;9.10;99.90;;;;;;5071862;28;20232;-77
2023/04/10 04:30:47;;;;;;;24.40;18.80;;;9.10;99.90;;;;;;5072754;28;20303;-77
2023/04/10 04:33:15;;;;;;;28.02;23.13;;;9.10;99.90;;;;;;5072465;28;20578;-78
2023/04/10 04:35:42;;;;;;;23.63;20.63;;;9.10;99.90;;;;;;5073011;28;20223;-77
2023/04/10 04:38:09;;;;;;;21.85;17.90;;;9.10;99.90;;;;;;5072898;28;20224;-77
2023/04/10 04:40:36;;;;;;;20.10;17.80;;;9.10;99.90;;;;;;5074975;28;20612;-78
2023/04/10 04:43:04;;;;;;;22.83;19.58;;;9.10;99.90;;;;;;5074093;28;20236;-77
2023/04/10 04:45:36;;;;;;;23.95;19.58;;;9.10;99.90;;;;;;5074604;28;20238;-78
2023/04/10 04:48:32;;;;;;;23.45;18.52;;;9.20;99.90;;;;;;5071507;28;20231;-78
2023/04/10 04:50:59;;;;;;;19.58;16.95;;;9.20;99.90;;;;;;5076346;28;20630;-77
2023/04/10 04:53:26;;;;;;;20.83;18.63;;;9.10;99.90;;;;;;5075281;28;20219;-78
2023/04/10 04:55:53;;;;;;;21.98;18.98;;;9.10;99.90;;;;;;5067402;28;20332;-78
2023/04/10 04:58:23;;;;;;;21.02;18.77;;;9.20;99.90;;;;;;5074488;28;20246;-77
2023/04/10 05:00:51;;;;;;;22.52;18.15;;;9.20;99.90;;;;;;5072898;28;20311;-77
2023/04/10 05:03:18;;;;;;;19.67;17.75;;;9.20;99.90;;;;;;5092283;28;20215;-77
2023/04/10 05:05:46;;;;;;;19.77;17.65;;;9.20;99.90;;;;;;5092300;28;20227;-77
2023/04/10 05:08:13;;;;;;;21.42;17.73;;;9.20;99.90;;;;;;5091923;28;20226;-78
2023/04/10 05:10:40;;;;;;;23.55;19.70;;;9.30;99.90;;;;;;5092640;28;20219;-78
2023/04/10 05:13:07;;;;;;;23.73;19.20;;;9.20;99.90;;;;;;5075743;28;20231;-78
2023/04/10 05:15:34;;;;;;;22.13;19.15;;;9.30;99.90;;;;;;5072414;28;20231;-77
2023/04/10 05:18:01;;;;;;;21.55;18.15;;;9.30;99.90;;;;;;5071759;28;20318;-78
2023/04/10 05:20:28;;;;;;;23.58;20.33;;;9.30;99.90;;;;;;5072728;28;20228;-77
2023/04/10 05:22:57;;;;;;;18.80;15.90;;;9.40;99.90;;;;;;5072359;28;20247;-78
2023/04/10 05:25:24;;;;;;;18.80;16.80;;;9.40;99.90;;;;;;5071161;28;20219;-78
2023/04/10 05:27:54;;;;;;;24.23;17.25;;;9.40;99.90;;;;;;5072559;28;20235;-77
2023/04/10 05:30:21;;;;;;;18.02;16.17;;;9.50;99.90;;;;;;5072111;28;20227;-77
2023/04/10 05:32:48;;;;;;;18.55;16.65;;;9.50;99.90;;;;;;5072465;28;20231;-78
2023/04/10 05:35:16;;;;;;;20.65;16.50;;;9.60;99.90;;;;;;5071772;28;20280;-78
2023/04/10 05:37:43;;;;;;;22.15;17.42;;;9.60;99.90;;;;;;5072580;28;20227;-78
2023/04/10 05:40:12;;;;;;;21.33;17.10;;;9.60;99.90;;;;;;5083656;28;20247;-77
2023/04/10 05:42:38;;;;;;;18.55;15.77;;;9.70;99.90;;;;;;5092357;28;20402;-77
2023/04/10 05:45:06;;;;;;;20.63;17.45;;;9.70;99.90;;;;;;5091669;28;20231;-77
2023/04/10 05:47:34;;;;;;;20.95;17.35;;;9.80;99.90;;;;;;5092269;28;20275;-77
2023/04/10 05:50:00;;;;;;;17.92;15.57;;;9.80;99.90;;;;;;5093126;28;20277;-78
2023/04/10 05:52:27;;;;;;;18.77;15.65;;;9.90;99.90;;;;;;5091448;28;20220;-78
2023/04/10 05:54:54;;;;;;;19.92;16.77;;;10.00;99.90;;;;;;5092083;28;20276;-78
2023/04/10 05:57:23;;;;;;;19.38;16.98;;;10.10;99.90;;;;;;5091711;28;20224;-77
2023/04/10 05:59:51;;;;;;;19.40;16.13;;;10.10;99.90;;;;;;5091949;28;20223;-77
2023/04/10 06:02:18;;;;;;;21.10;17.20;;;10.20;99.90;;;;;;5092072;28;20319;-78
2023/04/10 06:04:45;;;;;;;20.20;17.48;;;10.30;99.90;;;;;;5080866;28;20247;-78
2023/04/10 06:07:12;;;;;;;23.40;16.98;;;10.30;99.90;;;;;;5090818;28;20615;-78
2023/04/10 06:09:39;;;;;;;17.67;15.82;;;10.40;99.90;;;;;;5092052;28;20270;-77
2023/04/10 06:12:08;;;;;;;22.65;16.15;;;10.50;99.90;;;;;;5084045;28;20212;-76
2023/04/10 06:14:36;;;;;;;17.73;15.70;;;10.60;99.90;;;;;;5071582;28;20231;-77
2023/04/10 06:17:03;;;;;;;19.30;16.88;;;10.70;99.90;;;;;;5072961;28;20319;-77
2023/04/10 06:19:31;;;;;;;18.42;15.90;;;10.80;99.90;;;;;;5075202;28;21653;-77
2023/04/10 06:21:58;;;;;;;18.33;15.75;;;10.90;99.90;;;;;;5075174;28;20220;-77
2023/04/10 06:24:25;;;;;;;16.80;15.00;;;11.00;99.90;;;;;;5075275;28;20680;-76
2023/04/10 06:26:52;;;;;;;19.58;16.27;;;11.10;99.90;;;;;;5075353;28;20232;-76
2023/04/10 06:29:19;;;;;;;17.60;14.63;;;11.20;99.90;;;;;;5075078;28;20232;-76
2023/04/10 06:31:50;;;;;;;17.75;14.60;;;11.30;99.90;;;;;;5075443;28;20248;-76
2023/04/10 06:34:17;;;;;;;17.90;15.60;;;11.40;99.90;;;;;;5064018;28;20549;-77
2023/04/10 06:36:44;;;;;;;16.70;15.00;;;11.50;99.90;;;;;;5074728;28;20530;-77
2023/04/10 06:39:11;;;;;;;15.40;13.80;;;11.60;99.90;;;;;;5079391;28;20564;-77
2023/04/10 06:41:38;;;;;;;23.67;17.17;;;11.70;99.90;;;;;;5094553;28;20229;-77
2023/04/10 06:44:05;;;;;;;25.17;18.45;;;11.70;99.90;;;;;;5094962;28;20219;-77
2023/04/10 06:46:32;;;;;;;21.35;18.17;;;11.70;99.90;;;;;;5094732;28;20330;-77
2023/04/10 06:49:04;;;;;;;24.20;19.35;;;11.80;99.90;;;;;;5094682;28;20285;-77
2023/04/10 06:51:31;;;;;;;23.73;19.20;;;11.80;99.90;;;;;;5093999;28;20513;-76
2023/04/10 06:53:58;;;;;;;24.23;18.95;;;11.90;99.90;;;;;;5094152;28;20261;-77
2023/04/10 06:56:25;;;;;;;27.55;23.10;;;11.90;99.90;;;;;;5093327;28;20231;-77
2023/04/10 06:58:52;;;;;;;28.40;22.15;;;11.90;99.90;;;;;;5094826;28;20562;-77
2023/04/10 07:01:21;;;;;;;21.35;18.95;;;11.90;99.90;;;;;;5092837;28;20288;-77
2023/04/10 07:03:48;;;;;;;22.77;19.08;;;11.90;99.90;;;;;;5097323;28;20258;-77
2023/04/10 07:06:19;;;;;;;24.42;19.98;;;12.00;99.90;;;;;;5097792;28;20223;-76
2023/04/10 07:08:46;;;;;;;24.90;20.80;;;12.00;99.90;;;;;;5092785;28;20600;-79
2023/04/10 07:11:13;;;;;;;23.73;18.88;;;12.10;99.90;;;;;;5094143;28;20231;-79
2023/04/10 07:13:40;;;;;;;25.45;21.98;;;12.10;99.90;;;;;;5075513;28;20302;-79
2023/04/10 07:16:08;;;;;;;25.95;21.48;;;12.10;99.90;;;;;;5073525;28;20231;-77
2023/04/10 07:18:37;;;;;;;26.35;21.98;;;12.20;99.90;;;;;;5072611;28;20224;-77
2023/04/10 07:21:10;;;;;;;26.35;21.98;;;12.20;99.90;;;;;;5073502;28;20704;-77
2023/04/10 07:23:38;;;;;;;26.17;19.48;;;12.20;99.90;;;;;;5072199;28;20235;-77
2023/04/10 07:26:05;;;;;;;28.60;21.27;;;12.20;99.90;;;;;;5074647;28;20236;-78
2023/04/10 07:28:35;;;;;;;25.83;22.35;;;12.30;99.90;;;;;;5073263;28;20228;-77
2023/04/10 07:31:02;;;;;;;24.42;20.75;;;12.30;99.90;;;;;;5076211;28;20315;-77
2023/04/10 07:33:29;;;;;;;30.83;23.63;;;12.40;99.90;;;;;;5064918;28;20572;-76
2023/04/10 07:35:57;;;;;;;29.48;23.02;;;12.40;99.90;;;;;;5073716;28;20232;-77
2023/04/10 07:38:24;;;;;;;33.05;25.92;;;12.50;99.90;;;;;;5073458;28;20224;-77
2023/04/10 07:40:58;;;;;;;23.38;20.88;;;12.50;99.90;;;;;;5090998;28;20235;-77
2023/04/10 07:43:27;;;;;;;36.20;26.48;;;12.60;99.90;;;;;;5093090;28;20241;-77
2023/04/10 07:45:54;;;;;;;37.80;28.95;;;12.60;99.90;;;;;;5092616;28;20251;-77
2023/04/10 07:48:21;;;;;;;31.88;26.98;;;12.70;99.90;;;;;;5093272;28;20668;-76
2023/04/10 07:50:49;;;;;;;29.52;25.70;;;12.80;99.90;;;;;;5080980;28;20239;-76
2023/04/10 07:53:16;;;;;;;27.52;24.33;;;12.80;99.90;;;;;;5093140;28;20218;-76
2023/04/10 07:55:44;;;;;;;31.55;26.73;;;12.90;99.90;;;;;;5092645;28;20254;-77
2023/04/10 07:58:13;;;;;;;33.45;28.50;;;13.00;99.90;;;;;;5092867;28;20227;-77
2023/04/10 08:00:40;;;;;;;32.80;28.75;;;13.10;99.90;;;;;;5092395;28;20524;-77
2023/04/10 08:03:07;;;;;;;33.45;27.98;;;13.20;99.90;;;;;;5093606;28;20664;-76
2023/04/10 08:05:35;;;;;;;29.65;26.30;;;13.20;99.90;;;;;;5093747;28;20231;-77
2023/04/10 08:08:02;;;;;;;26.55;23.75;;;13.30;99.90;;;;;;5092807;28;20644;-77
2023/04/10 08:10:29;;;;;;;33.80;29.35;;;13.30;99.90;;;;;;5093369;28;20276;-77
2023/04/10 08:12:56;;;;;;;36.73;30.07;;;13.40;99.90;;;;;;5077751;28;20220;-77
2023/04/10 08:15:26;;;;;;;31.43;26.90;;;13.50;99.90;;;;;;5078537;28;20797;-77
2023/04/10 08:17:53;;;;;;;33.10;28.00;;;13.50;99.90;;;;;;5082502;28;20569;-77
2023/04/10 08:20:24;;;;;;;26.52;23.48;;;13.60;99.90;;;;;;5092865;28;20393;-76
2023/04/10 08:22:51;;;;;;;26.00;23.27;;;13.70;99.90;;;;;;5093005;28;20224;-76
2023/04/10 08:25:29;;;;;;;28.00;23.88;;;13.80;99.90;;;;;;5093894;28;20444;-77
2023/04/10 08:27:58;;;;;;;27.20;24.27;;;13.90;99.90;;;;;;5095097;28;20223;-77
2023/04/10 08:30:26;;;;;;;29.77;24.73;;;13.90;99.90;;;;;;5096084;28;20466;-76
2023/04/10 08:32:53;;;;;;;26.90;24.20;;;13.90;99.90;;;;;;5094413;28;20461;-77
2023/04/10 08:35:20;;;;;;;27.33;23.50;;;14.00;99.90;;;;;;5094644;28;20499;-77
2023/04/10 08:37:47;;;;;;;32.23;27.80;;;14.10;99.90;;;;;;5094156;28;20511;-77
2023/04/10 08:40:16;;;;;;;33.37;28.63;;;14.20;99.90;;;;;;5094165;28;20491;-76
2023/04/10 08:42:43;;;;;;;30.17;22.97;;;14.20;99.90;;;;;;5092780;28;20469;-77
2023/04/10 08:45:14;;;;;;;28.30;25.17;;;14.30;99.90;;;;;;5093210;28;20515;-77
2023/04/10 08:47:44;;;;;;;25.27;22.37;;;14.30;99.90;;;;;;5093933;28;20568;-78
2023/04/10 08:50:15;;;;;;;29.50;24.70;;;14.40;99.90;;;;;;5093424;28;20472;-77
2023/04/10 08:52:46;;;;;;;28.23;24.40;;;14.40;99.90;;;;;;5096731;28;20453;-77
2023/04/10 08:55:14;;;;;;;26.77;22.77;;;14.50;99.90;;;;;;5096937;28;20470;-77
2023/04/10 08:57:45;;;;;;;25.67;22.70;;;14.50;99.90;;;;;;5093811;28;20549;-76
2023/04/10 09:00:15;;;;;;;25.97;19.90;;;14.50;99.90;;;;;;5093566;28;20449;-76
2023/04/10 09:02:46;;;;;;;31.17;23.20;;;14.60;99.90;;;;;;5082950;28;20549;-76
2023/04/10 09:05:16;;;;;;;26.83;22.67;;;14.60;99.90;;;;;;5092906;28;20585;-76
2023/04/10 09:07:43;;;;;;;23.00;20.00;;;14.70;99.90;;;;;;5093208;28;20526;-76
2023/04/10 09:10:11;;;;;;;23.63;21.03;;;14.80;99.90;;;;;;5097574;28;20481;-77
2023/04/10 09:12:45;;;;;;;23.30;20.53;;;14.80;99.90;;;;;;5084442;28;20527;-77
2023/04/10 09:15:17;;;;;;;22.27;20.07;;;14.90;99.90;;;;;;5074696;28;20468;-78
2023/04/10 09:18:05;;;;;;;21.70;19.50;;;15.00;99.90;;;;;;5093320;28;20492;-77
2023/04/10 09:20:32;;;;;;;22.90;19.77;;;15.10;99.90;;;;;;5093564;28;20487;-77
2023/04/10 09:23:00;;;;;;;26.37;22.90;;;15.20;99.90;;;;;;5092058;28;20457;-78
2023/04/10 09:25:35;;;;;;;22.43;19.50;;;15.20;99.90;;;;;;5092612;28;20526;-77
2023/04/10 09:28:04;;;;;;;25.37;22.13;;;15.20;99.90;;;;;;5086507;28;20457;-77
2023/04/10 09:33:28;;;;;;;23.37;19.73;;;15.40;99.90;;;;;;5093926;28;20503;-77
2023/04/10 09:35:58;;;;;;;25.67;22.73;;;15.50;99.90;;;;;;5093269;28;20840;-78
2023/04/10 09:38:25;;;;;;;27.40;23.67;;;15.50;99.90;;;;;;5092444;28;20594;-78
2023/04/10 09:40:52;;;;;;;25.00;20.77;;;15.50;99.90;;;;;;5092039;28;20449;-77
2023/04/10 09:43:21;;;;;;;28.43;21.50;;;15.60;99.90;;;;;;5091764;28;20479;-76
2023/04/10 09:45:53;;;;;;;20.77;18.63;;;15.70;99.90;;;;;;5091385;28;20457;-77
2023/04/10 09:48:23;;;;;;;17.73;14.93;;;15.80;99.90;;;;;;5092400;28;20515;-77
2023/04/10 09:50:51;;;;;;;23.60;16.67;;;15.80;99.90;;;;;;5091951;28;20470;-77
2023/04/10 09:53:20;;;;;;;20.67;16.17;;;15.80;99.90;;;;;;5093983;28;20457;-77
2023/04/10 09:55:49;;;;;;;16.03;14.33;;;15.80;99.90;;;;;;5095369;28;20504;-78
2023/04/10 09:58:17;;;;;;;17.90;15.30;;;15.80;99.90;;;;;;5095976;28;20809;-77
2023/04/10 10:00:46;;;;;;;20.77;13.77;;;15.90;99.90;;;;;;5095866;28;20465;-77
2023/04/10 10:03:14;;;;;;;18.37;15.17;;;16.00;99.90;;;;;;5095681;28;20461;-77
2023/04/10 10:05:43;;;;;;;17.27;15.30;;;16.00;99.90;;;;;;5094792;28;20490;-77
2023/04/10 10:08:13;;;;;;;19.20;15.60;;;16.00;99.90;;;;;;5096597;28;20547;-77
2023/04/10 10:10:45;;;;;;;16.93;13.87;;;16.00;99.90;;;;;;5094354;28;20518;-78
2023/04/10 10:13:17;;;;;;;16.20;14.03;;;15.90;99.90;;;;;;5079565;28;20515;-78
2023/04/10 10:15:50;;;;;;;15.27;13.83;;;16.00;99.90;;;;;;5083506;28;20954;-77
2023/04/10 10:18:26;;;;;;;18.47;13.60;;;16.10;99.90;;;;;;5095393;28;20473;-78
2023/04/10 10:20:54;;;;;;;17.53;13.83;;;16.10;99.90;;;;;;5076000;28;20785;-77
2023/04/10 10:23:23;;;;;;;16.83;14.07;;;16.00;99.90;;;;;;5075453;28;20564;-77
2023/04/10 10:25:52;;;;;;;14.90;13.37;;;16.00;99.90;;;;;;5074845;28;20979;-76
2023/04/10 10:28:21;;;;;;;20.33;15.70;;;16.00;99.90;;;;;;5074868;28;20477;-77
2023/04/10 10:30:48;;;;;;;17.70;14.77;;;16.10;99.90;;;;;;5074128;28;20466;-77
2023/04/10 10:33:15;;;;;;;14.53;12.83;;;16.20;99.90;;;;;;5075200;28;20466;-76
2023/04/10 10:35:43;;;;;;;17.13;14.37;;;16.30;99.90;;;;;;5074856;28;20474;-77
2023/04/10 10:38:12;;;;;;;14.67;13.20;;;16.30;99.90;;;;;;5075003;28;20466;-78
2023/04/10 10:40:48;;;;;;;14.47;12.20;;;16.40;99.90;;;;;;5073184;28;20471;-78
2023/04/10 10:43:20;;;;;;;14.53;12.73;;;16.50;99.90;;;;;;5074894;28;20486;-77
2023/04/10 10:45:54;;;;;;;16.77;14.30;;;16.60;99.90;;;;;;5083795;28;20469;-77
2023/04/10 10:48:32;;;;;;;16.93;15.13;;;16.60;99.90;;;;;;5085591;28;20522;-78
2023/04/10 10:53:54;;;;;;;12.80;11.40;;;16.70;99.90;;;;;;5079481;28;20469;-77
2023/04/10 10:56:36;;;;;;;13.33;12.00;;;16.80;99.90;;;;;;5094317;28;20465;-77
2023/04/10 10:59:03;;;;;;;16.33;14.00;;;16.80;99.90;;;;;;5093827;28;20457;-77
2023/04/10 11:01:31;;;;;;;13.70;11.70;;;16.80;99.90;;;;;;5094330;28;20457;-77
2023/04/10 11:03:58;;;;;;;13.67;12.20;;;16.80;99.90;;;;;;5094303;28;20473;-77
2023/04/10 11:06:51;;;;;;;13.83;12.33;;;16.80;99.90;;;;;;5093733;28;20804;-77
2023/04/10 11:09:47;;;;;;;12.07;10.53;;;16.80;99.90;;;;;;5094362;28;20553;-77
2023/04/10 11:12:17;;;;;;;14.13;11.13;;;16.90;99.90;;;;;;5092273;28;20849;-77
2023/04/10 11:14:56;;;;;;;13.73;10.70;;;16.90;99.90;;;;;;5094437;28;20962;-77
2023/04/10 11:17:47;;;;;;;12.60;10.30;;;16.90;99.90;;;;;;5094036;28;20465;-78
2023/04/10 11:20:20;;;;;;;9.97;9.07;;;17.00;99.90;;;;;;5093925;28;20565;-77
2023/04/10 11:23:11;;;;;;;10.70;9.10;;;17.00;99.90;;;;;;5094456;28;20806;-78
2023/04/10 11:25:50;;;;;;;12.03;9.90;;;17.00;99.90;;;;;;5091971;28;20553;-78
2023/04/10 11:28:42;;;;;;;11.63;9.67;;;17.10;99.90;;;;;;5092573;28;20489;-78
2023/04/10 11:31:18;;;;;;;12.83;9.50;;;17.10;99.90;;;;;;5094018;28;20466;-78
2023/04/10 11:33:47;;;;;;;9.47;8.57;;;17.20;99.60;;;;;;5093559;28;20545;-77
2023/04/10 11:36:16;;;;;;;9.57;8.57;;;17.20;99.40;;;;;;5093113;28;20480;-77
2023/04/10 11:38:57;;;;;;;12.57;8.73;;;17.20;99.40;;;;;;5094081;28;20454;-77
2023/04/10 11:41:30;;;;;;;11.43;9.13;;;17.10;99.00;;;;;;5093495;28;20539;-77
2023/04/10 11:43:59;;;;;;;11.53;7.80;;;17.10;98.80;;;;;;5094202;28;20469;-77
2023/04/10 11:46:27;;;;;;;9.93;8.93;;;17.10;98.10;;;;;;5092390;28;20473;-78
2023/04/10 11:48:55;;;;;;;8.20;7.27;;;17.10;98.40;;;;;;5094229;28;20508;-78
2023/04/10 11:51:26;;;;;;;10.83;9.70;;;17.20;98.50;;;;;;5094682;28;20469;-77
2023/04/10 11:54:06;;;;;;;11.03;8.50;;;17.10;98.50;;;;;;5094209;28;20468;-76
2023/04/10 11:56:33;;;;;;;11.67;9.17;;;17.20;98.60;;;;;;5093024;28;20531;-78
2023/04/10 11:59:06;;;;;;;11.90;8.47;;;17.20;98.60;;;;;;5093984;28;20468;-77
2023/04/10 12:01:33;;;;;;;11.83;9.00;;;17.20;98.30;;;;;;5093012;28;20476;-78
2023/04/10 12:04:00;;;;;;;9.37;7.67;;;17.20;98.10;;;;;;5093707;28;20466;-77
2023/04/10 12:06:28;;;;;;;10.17;8.33;;;17.20;97.40;;;;;;5093012;28;20533;-77
2023/04/10 12:08:55;;;;;;;9.67;8.67;;;17.20;97.20;;;;;;5093477;28;20449;-77
2023/04/10 12:11:48;;;;;;;;;;;;;;;;;;;;;
2023/04/10 12:14:16;;;;;;;11.63;10.20;;;17.20;97.70;;;;;;5073273;28;20474;-77
2023/04/10 12:16:43;;;;;;;10.30;8.20;;;17.10;97.60;;;;;;5093148;28;20466;-76
2023/04/10 12:19:11;;;;;;;11.30;9.70;;;17.20;98.10;;;;;;5082550;28;20488;-77
2023/04/10 12:24:45;;;;;;;14.03;9.40;;;17.10;98.10;;;;;;5090071;28;20811;-77
2023/04/10 12:27:19;;;;;;;10.20;9.20;;;17.10;97.80;;;;;;5092872;28;20462;-77
2023/04/10 12:29:50;;;;;;;8.87;8.00;;;17.10;97.50;;;;;;5093186;28;20526;-77
2023/04/10 12:32:18;;;;;;;8.67;7.87;;;17.20;97.60;;;;;;5092968;28;20449;-78
2023/04/10 12:34:56;;;;;;;9.37;8.40;;;17.20;96.60;;;;;;5088917;28;20496;-78
2023/04/10 12:37:45;;;;;;;7.93;7.13;;;17.20;95.90;;;;;;5092163;28;20464;-77
2023/04/10 12:40:19;;;;;;;9.27;7.40;;;17.20;95.70;;;;;;5092038;28;20536;-77
2023/04/10 12:42:47;;;;;;;6.37;5.57;;;17.20;94.20;;;;;;5073174;28;20466;-77
2023/04/10 12:45:15;;;;;;;9.27;7.87;;;17.30;94.30;;;;;;5075263;28;20518;-78
2023/04/10 12:47:46;;;;;;;8.13;7.33;;;17.30;93.90;;;;;;5092145;28;20462;-78
2023/04/10 12:50:15;;;;;;;7.50;6.80;;;17.40;93.80;;;;;;5088953;28;20501;-76
2023/04/10 12:52:47;;;;;;;7.60;6.90;;;17.40;94.20;;;;;;5085863;28;20474;-77
2023/04/10 12:55:18;;;;;;;8.10;7.40;;;17.50;94.30;;;;;;5086881;28;20967;-77